sensor_id;sensor_type;location;lat;lon;timestamp;P1;durP1;ratioP1;P2;durP2;ratioP2
62709;SDS011;48770;51.624;5.886;2023-02-07T00:01:06;1.08;;;0.82;;
62709;SDS011;48770;51.624;5.886;2023-02-07T00:03:36;1.45;;;0.90;;
62709;SDS011;48770;51.624;5.886;2023-02-07T00:06:05;1.15;;;0.93;;
62709;SDS011;48770;51.624;5.886;2023-02-07T00:08:54;2.25;;;1.13;;
62709;SDS011;48770;51.624;5.886;2023-02-07T00:11:20;1.50;;;1.00;;
62709;SDS011;48770;51.624;5.886;2023-02-07T00:13:48;1.85;;;1.00;;
62709;SDS011;48770;51.624;5.886;2023-02-07T00:16:15;3.35;;;1.42;;
62709;SDS011;48770;51.624;5.886;2023-02-07T00:18:41;1.63;;;0.90;;
62709;SDS011;48770;51.624;5.886;2023-02-07T00:21:07;1.50;;;1.00;;
62709;SDS011;48770;51.624;5.886;2023-02-07T00:23:34;1.45;;;0.95;;
62709;SDS011;48770;51.624;5.886;2023-02-07T00:26:01;1.70;;;1.10;;
62709;SDS011;48770;51.624;5.886;2023-02-07T00:28:27;1.17;;;0.77;;
62709;SDS011;48770;51.624;5.886;2023-02-07T00:31:03;1.30;;;0.90;;
62709;SDS011;48770;51.624;5.886;2023-02-07T00:33:30;2.28;;;1.10;;
62709;SDS011;48770;51.624;5.886;2023-02-07T00:35:56;1.38;;;0.85;;
62709;SDS011;48770;51.624;5.886;2023-02-07T00:38:23;1.40;;;1.17;;
62709;SDS011;48770;51.624;5.886;2023-02-07T00:40:48;1.35;;;0.80;;
62709;SDS011;48770;51.624;5.886;2023-02-07T00:43:14;1.20;;;1.00;;
62709;SDS011;48770;51.624;5.886;2023-02-07T00:45:39;1.98;;;1.10;;
62709;SDS011;48770;51.624;5.886;2023-02-07T00:48:04;1.20;;;0.85;;
62709;SDS011;48770;51.624;5.886;2023-02-07T00:50:30;1.83;;;1.33;;
62709;SDS011;48770;51.624;5.886;2023-02-07T00:52:55;1.25;;;0.90;;
62709;SDS011;48770;51.624;5.886;2023-02-07T00:55:20;1.60;;;0.85;;
62709;SDS011;48770;51.624;5.886;2023-02-07T00:57:46;1.10;;;0.80;;
62709;SDS011;48770;51.624;5.886;2023-02-07T01:00:11;1.02;;;0.85;;
62709;SDS011;48770;51.624;5.886;2023-02-07T01:02:37;0.82;;;0.73;;
62709;SDS011;48770;51.624;5.886;2023-02-07T01:05:02;1.40;;;0.80;;
62709;SDS011;48770;51.624;5.886;2023-02-07T01:07:28;1.70;;;0.98;;
62709;SDS011;48770;51.624;5.886;2023-02-07T01:09:53;1.20;;;0.85;;
62709;SDS011;48770;51.624;5.886;2023-02-07T01:12:18;2.45;;;1.00;;
62709;SDS011;48770;51.624;5.886;2023-02-07T01:14:44;3.60;;;0.88;;
62709;SDS011;48770;51.624;5.886;2023-02-07T01:17:09;1.02;;;0.73;;
62709;SDS011;48770;51.624;5.886;2023-02-07T01:19:34;1.23;;;0.95;;
62709;SDS011;48770;51.624;5.886;2023-02-07T01:21:59;1.17;;;0.70;;
62709;SDS011;48770;51.624;5.886;2023-02-07T01:24:25;1.73;;;1.08;;
62709;SDS011;48770;51.624;5.886;2023-02-07T01:26:50;1.67;;;0.98;;
62709;SDS011;48770;51.624;5.886;2023-02-07T01:29:15;1.77;;;1.08;;
62709;SDS011;48770;51.624;5.886;2023-02-07T01:31:41;1.35;;;0.90;;
62709;SDS011;48770;51.624;5.886;2023-02-07T01:34:09;1.48;;;0.80;;
62709;SDS011;48770;51.624;5.886;2023-02-07T01:36:36;1.50;;;0.80;;
62709;SDS011;48770;51.624;5.886;2023-02-07T01:39:01;1.30;;;0.80;;
62709;SDS011;48770;51.624;5.886;2023-02-07T01:41:28;2.13;;;0.90;;
62709;SDS011;48770;51.624;5.886;2023-02-07T01:43:58;1.33;;;0.82;;
62709;SDS011;48770;51.624;5.886;2023-02-07T01:46:29;1.80;;;0.85;;
62709;SDS011;48770;51.624;5.886;2023-02-07T01:48:57;1.48;;;0.80;;
62709;SDS011;48770;51.624;5.886;2023-02-07T01:51:25;1.55;;;1.00;;
62709;SDS011;48770;51.624;5.886;2023-02-07T01:53:52;1.45;;;0.90;;
62709;SDS011;48770;51.624;5.886;2023-02-07T01:56:21;1.60;;;1.10;;
62709;SDS011;48770;51.624;5.886;2023-02-07T01:58:47;1.75;;;0.90;;
62709;SDS011;48770;51.624;5.886;2023-02-07T02:01:16;1.67;;;0.90;;
62709;SDS011;48770;51.624;5.886;2023-02-07T02:03:46;2.08;;;0.80;;
62709;SDS011;48770;51.624;5.886;2023-02-07T02:06:14;0.95;;;0.70;;
62709;SDS011;48770;51.624;5.886;2023-02-07T02:08:41;1.33;;;0.80;;
62709;SDS011;48770;51.624;5.886;2023-02-07T02:22:10;1.25;;;0.88;;
62709;SDS011;48770;51.624;5.886;2023-02-07T02:38:41;0.90;;;0.60;;
62709;SDS011;48770;51.624;5.886;2023-02-07T02:41:14;2.10;;;0.90;;
62709;SDS011;48770;51.624;5.886;2023-02-07T02:43:45;1.63;;;0.90;;
62709;SDS011;48770;51.624;5.886;2023-02-07T02:46:19;1.77;;;1.15;;
62709;SDS011;48770;51.624;5.886;2023-02-07T02:48:47;1.27;;;1.00;;
62709;SDS011;48770;51.624;5.886;2023-02-07T02:51:14;1.50;;;1.20;;
62709;SDS011;48770;51.624;5.886;2023-02-07T02:53:39;2.13;;;1.00;;
62709;SDS011;48770;51.624;5.886;2023-02-07T02:56:23;2.10;;;1.00;;
62709;SDS011;48770;51.624;5.886;2023-02-07T02:58:59;0.70;;;0.70;;
62709;SDS011;48770;51.624;5.886;2023-02-07T03:01:56;1.77;;;0.95;;
62709;SDS011;48770;51.624;5.886;2023-02-07T03:04:44;1.55;;;1.13;;
62709;SDS011;48770;51.624;5.886;2023-02-07T03:07:31;1.20;;;0.90;;
62709;SDS011;48770;51.624;5.886;2023-02-07T03:13:17;0.80;;;0.60;;
62709;SDS011;48770;51.624;5.886;2023-02-07T03:23:54;0.95;;;0.85;;
62709;SDS011;48770;51.624;5.886;2023-02-07T03:26:22;1.48;;;0.93;;
62709;SDS011;48770;51.624;5.886;2023-02-07T03:28:49;1.42;;;0.70;;
62709;SDS011;48770;51.624;5.886;2023-02-07T03:31:16;2.25;;;1.02;;
62709;SDS011;48770;51.624;5.886;2023-02-07T03:33:47;1.42;;;0.73;;
62709;SDS011;48770;51.624;5.886;2023-02-07T03:36:23;1.10;;;0.73;;
62709;SDS011;48770;51.624;5.886;2023-02-07T03:38:58;1.52;;;1.23;;
62709;SDS011;48770;51.624;5.886;2023-02-07T03:41:27;1.50;;;0.90;;
62709;SDS011;48770;51.624;5.886;2023-02-07T03:43:58;1.63;;;1.00;;
62709;SDS011;48770;51.624;5.886;2023-02-07T03:46:31;1.27;;;0.88;;
62709;SDS011;48770;51.624;5.886;2023-02-07T03:49:00;1.88;;;1.02;;
62709;SDS011;48770;51.624;5.886;2023-02-07T03:51:26;1.08;;;0.80;;
62709;SDS011;48770;51.624;5.886;2023-02-07T03:53:51;1.65;;;0.90;;
62709;SDS011;48770;51.624;5.886;2023-02-07T03:56:17;1.42;;;0.80;;
62709;SDS011;48770;51.624;5.886;2023-02-07T03:58:42;0.70;;;0.60;;
62709;SDS011;48770;51.624;5.886;2023-02-07T04:01:07;2.05;;;1.20;;
62709;SDS011;48770;51.624;5.886;2023-02-07T04:03:33;1.40;;;0.98;;
62709;SDS011;48770;51.624;5.886;2023-02-07T04:05:58;1.58;;;0.80;;
62709;SDS011;48770;51.624;5.886;2023-02-07T04:08:23;1.52;;;1.00;;
62709;SDS011;48770;51.624;5.886;2023-02-07T04:10:58;1.15;;;0.75;;
62709;SDS011;48770;51.624;5.886;2023-02-07T04:13:26;2.55;;;1.25;;
62709;SDS011;48770;51.624;5.886;2023-02-07T04:15:51;1.75;;;1.00;;
62709;SDS011;48770;51.624;5.886;2023-02-07T04:18:17;1.23;;;0.85;;
62709;SDS011;48770;51.624;5.886;2023-02-07T04:20:42;1.85;;;1.00;;
62709;SDS011;48770;51.624;5.886;2023-02-07T04:23:07;1.48;;;0.93;;
62709;SDS011;48770;51.624;5.886;2023-02-07T04:25:33;1.40;;;0.68;;
62709;SDS011;48770;51.624;5.886;2023-02-07T04:27:58;1.58;;;0.93;;
62709;SDS011;48770;51.624;5.886;2023-02-07T04:30:23;1.30;;;0.93;;
62709;SDS011;48770;51.624;5.886;2023-02-07T04:32:49;2.53;;;1.10;;
62709;SDS011;48770;51.624;5.886;2023-02-07T04:35:14;1.75;;;1.00;;
62709;SDS011;48770;51.624;5.886;2023-02-07T04:37:39;1.73;;;1.00;;
62709;SDS011;48770;51.624;5.886;2023-02-07T04:40:05;1.38;;;1.00;;
62709;SDS011;48770;51.624;5.886;2023-02-07T04:42:31;1.02;;;0.52;;
62709;SDS011;48770;51.624;5.886;2023-02-07T04:44:56;1.20;;;0.80;;
62709;SDS011;48770;51.624;5.886;2023-02-07T04:47:21;1.38;;;1.08;;
62709;SDS011;48770;51.624;5.886;2023-02-07T04:49:47;1.90;;;1.27;;
62709;SDS011;48770;51.624;5.886;2023-02-07T04:52:12;1.85;;;1.02;;
62709;SDS011;48770;51.624;5.886;2023-02-07T04:54:38;1.50;;;1.17;;
62709;SDS011;48770;51.624;5.886;2023-02-07T04:57:03;1.73;;;1.10;;
62709;SDS011;48770;51.624;5.886;2023-02-07T04:59:28;2.42;;;0.88;;
62709;SDS011;48770;51.624;5.886;2023-02-07T05:01:54;1.75;;;1.08;;
62709;SDS011;48770;51.624;5.886;2023-02-07T05:04:19;2.08;;;1.17;;
62709;SDS011;48770;51.624;5.886;2023-02-07T05:06:45;1.92;;;1.20;;
62709;SDS011;48770;51.624;5.886;2023-02-07T05:09:11;1.55;;;1.10;;
62709;SDS011;48770;51.624;5.886;2023-02-07T05:11:36;1.48;;;1.08;;
62709;SDS011;48770;51.624;5.886;2023-02-07T05:14:02;1.77;;;1.10;;
62709;SDS011;48770;51.624;5.886;2023-02-07T05:16:27;1.67;;;1.15;;
62709;SDS011;48770;51.624;5.886;2023-02-07T05:18:52;0.98;;;0.85;;
62709;SDS011;48770;51.624;5.886;2023-02-07T05:21:18;2.28;;;1.10;;
62709;SDS011;48770;51.624;5.886;2023-02-07T05:23:43;1.60;;;1.13;;
62709;SDS011;48770;51.624;5.886;2023-02-07T05:26:09;1.35;;;0.95;;
62709;SDS011;48770;51.624;5.886;2023-02-07T05:28:34;1.40;;;1.05;;
62709;SDS011;48770;51.624;5.886;2023-02-07T05:31:00;2.03;;;1.38;;
62709;SDS011;48770;51.624;5.886;2023-02-07T05:33:25;1.40;;;1.02;;
62709;SDS011;48770;51.624;5.886;2023-02-07T05:35:51;1.65;;;1.02;;
62709;SDS011;48770;51.624;5.886;2023-02-07T05:38:17;2.28;;;1.00;;
62709;SDS011;48770;51.624;5.886;2023-02-07T05:40:43;1.65;;;1.10;;
62709;SDS011;48770;51.624;5.886;2023-02-07T05:43:10;1.65;;;1.13;;
62709;SDS011;48770;51.624;5.886;2023-02-07T05:45:36;2.35;;;1.50;;
62709;SDS011;48770;51.624;5.886;2023-02-07T05:48:02;1.85;;;1.27;;
62709;SDS011;48770;51.624;5.886;2023-02-07T05:50:27;1.63;;;1.13;;
62709;SDS011;48770;51.624;5.886;2023-02-07T05:52:53;1.70;;;1.23;;
62709;SDS011;48770;51.624;5.886;2023-02-07T05:55:18;1.80;;;1.33;;
62709;SDS011;48770;51.624;5.886;2023-02-07T05:57:44;1.85;;;1.30;;
62709;SDS011;48770;51.624;5.886;2023-02-07T06:00:10;1.90;;;1.30;;
62709;SDS011;48770;51.624;5.886;2023-02-07T06:02:38;1.75;;;1.02;;
62709;SDS011;48770;51.624;5.886;2023-02-07T06:05:04;2.13;;;1.50;;
62709;SDS011;48770;51.624;5.886;2023-02-07T06:07:30;1.30;;;1.10;;
62709;SDS011;48770;51.624;5.886;2023-02-07T06:09:55;1.73;;;1.30;;
62709;SDS011;48770;51.624;5.886;2023-02-07T06:12:21;1.27;;;1.10;;
62709;SDS011;48770;51.624;5.886;2023-02-07T06:14:46;1.70;;;1.40;;
62709;SDS011;48770;51.624;5.886;2023-02-07T06:17:11;1.48;;;1.38;;
62709;SDS011;48770;51.624;5.886;2023-02-07T06:19:37;1.92;;;1.45;;
62709;SDS011;48770;51.624;5.886;2023-02-07T06:22:02;2.45;;;1.48;;
62709;SDS011;48770;51.624;5.886;2023-02-07T06:24:27;2.08;;;1.55;;
62709;SDS011;48770;51.624;5.886;2023-02-07T06:26:52;2.03;;;1.40;;
62709;SDS011;48770;51.624;5.886;2023-02-07T06:29:18;1.65;;;1.40;;
62709;SDS011;48770;51.624;5.886;2023-02-07T06:31:43;1.60;;;1.30;;
62709;SDS011;48770;51.624;5.886;2023-02-07T06:34:08;1.83;;;1.30;;
62709;SDS011;48770;51.624;5.886;2023-02-07T06:36:34;1.85;;;1.30;;
62709;SDS011;48770;51.624;5.886;2023-02-07T06:38:59;2.53;;;1.63;;
62709;SDS011;48770;51.624;5.886;2023-02-07T06:41:24;1.13;;;1.02;;
62709;SDS011;48770;51.624;5.886;2023-02-07T06:43:50;1.38;;;1.27;;
62709;SDS011;48770;51.624;5.886;2023-02-07T06:46:15;1.42;;;1.20;;
62709;SDS011;48770;51.624;5.886;2023-02-07T06:48:41;1.50;;;1.40;;
62709;SDS011;48770;51.624;5.886;2023-02-07T06:51:06;1.98;;;1.38;;
62709;SDS011;48770;51.624;5.886;2023-02-07T06:53:31;1.10;;;1.00;;
62709;SDS011;48770;51.624;5.886;2023-02-07T06:55:57;1.50;;;1.20;;
62709;SDS011;48770;51.624;5.886;2023-02-07T06:58:22;1.23;;;1.13;;
62709;SDS011;48770;51.624;5.886;2023-02-07T07:00:47;1.42;;;1.20;;
62709;SDS011;48770;51.624;5.886;2023-02-07T07:03:13;1.70;;;1.30;;
62709;SDS011;48770;51.624;5.886;2023-02-07T07:05:40;1.70;;;1.40;;
62709;SDS011;48770;51.624;5.886;2023-02-07T07:08:06;1.90;;;1.60;;
62709;SDS011;48770;51.624;5.886;2023-02-07T07:10:32;1.60;;;1.13;;
62709;SDS011;48770;51.624;5.886;2023-02-07T07:12:57;1.60;;;1.50;;
62709;SDS011;48770;51.624;5.886;2023-02-07T07:15:23;1.77;;;1.20;;
62709;SDS011;48770;51.624;5.886;2023-02-07T07:17:48;1.88;;;1.60;;
62709;SDS011;48770;51.624;5.886;2023-02-07T07:20:13;1.35;;;1.25;;
62709;SDS011;48770;51.624;5.886;2023-02-07T07:22:39;1.85;;;1.40;;
62709;SDS011;48770;51.624;5.886;2023-02-07T07:25:05;1.40;;;1.10;;
62709;SDS011;48770;51.624;5.886;2023-02-07T07:27:30;1.50;;;1.38;;
62709;SDS011;48770;51.624;5.886;2023-02-07T07:29:56;1.80;;;1.48;;
62709;SDS011;48770;51.624;5.886;2023-02-07T07:32:21;1.63;;;1.33;;
62709;SDS011;48770;51.624;5.886;2023-02-07T07:34:46;2.30;;;1.88;;
62709;SDS011;48770;51.624;5.886;2023-02-07T07:37:13;1.67;;;1.33;;
62709;SDS011;48770;51.624;5.886;2023-02-07T07:39:39;1.50;;;1.40;;
62709;SDS011;48770;51.624;5.886;2023-02-07T07:42:04;2.10;;;1.75;;
62709;SDS011;48770;51.624;5.886;2023-02-07T07:44:30;1.67;;;1.58;;
62709;SDS011;48770;51.624;5.886;2023-02-07T07:46:55;1.60;;;1.50;;
62709;SDS011;48770;51.624;5.886;2023-02-07T07:49:21;1.70;;;1.40;;
62709;SDS011;48770;51.624;5.886;2023-02-07T07:51:47;1.55;;;1.45;;
62709;SDS011;48770;51.624;5.886;2023-02-07T07:54:12;2.17;;;1.48;;
62709;SDS011;48770;51.624;5.886;2023-02-07T07:56:38;1.52;;;1.42;;
62709;SDS011;48770;51.624;5.886;2023-02-07T07:59:03;1.42;;;1.20;;
62709;SDS011;48770;51.624;5.886;2023-02-07T08:01:29;1.60;;;1.50;;
62709;SDS011;48770;51.624;5.886;2023-02-07T08:03:54;1.45;;;1.35;;
62709;SDS011;48770;51.624;5.886;2023-02-07T08:06:20;2.30;;;1.50;;
62709;SDS011;48770;51.624;5.886;2023-02-07T08:08:45;1.60;;;1.50;;
62709;SDS011;48770;51.624;5.886;2023-02-07T08:11:11;1.75;;;1.63;;
62709;SDS011;48770;51.624;5.886;2023-02-07T08:13:36;1.67;;;1.58;;
62709;SDS011;48770;51.624;5.886;2023-02-07T08:16:03;1.38;;;1.27;;
62709;SDS011;48770;51.624;5.886;2023-02-07T08:18:32;1.98;;;1.48;;
62709;SDS011;48770;51.624;5.886;2023-02-07T08:20:57;1.80;;;1.70;;
62709;SDS011;48770;51.624;5.886;2023-02-07T08:23:22;2.15;;;1.85;;
62709;SDS011;48770;51.624;5.886;2023-02-07T08:25:48;2.95;;;1.70;;
62709;SDS011;48770;51.624;5.886;2023-02-07T08:28:14;2.13;;;1.60;;
62709;SDS011;48770;51.624;5.886;2023-02-07T08:30:39;3.08;;;1.83;;
62709;SDS011;48770;51.624;5.886;2023-02-07T08:33:05;2.28;;;1.90;;
62709;SDS011;48770;51.624;5.886;2023-02-07T08:35:30;1.98;;;1.77;;
62709;SDS011;48770;51.624;5.886;2023-02-07T08:37:56;2.15;;;1.95;;
62709;SDS011;48770;51.624;5.886;2023-02-07T08:40:22;2.15;;;1.88;;
62709;SDS011;48770;51.624;5.886;2023-02-07T08:42:48;2.22;;;2.03;;
62709;SDS011;48770;51.624;5.886;2023-02-07T08:45:14;2.08;;;1.88;;
62709;SDS011;48770;51.624;5.886;2023-02-07T08:47:41;2.53;;;2.25;;
62709;SDS011;48770;51.624;5.886;2023-02-07T08:50:10;2.72;;;2.10;;
62709;SDS011;48770;51.624;5.886;2023-02-07T08:52:37;3.70;;;1.95;;
62709;SDS011;48770;51.624;5.886;2023-02-07T08:55:02;2.60;;;2.22;;
62709;SDS011;48770;51.624;5.886;2023-02-07T08:57:28;2.78;;;2.50;;
62709;SDS011;48770;51.624;5.886;2023-02-07T08:59:53;2.55;;;2.35;;
62709;SDS011;48770;51.624;5.886;2023-02-07T09:02:19;2.40;;;2.20;;
62709;SDS011;48770;51.624;5.886;2023-02-07T09:04:45;2.38;;;1.90;;
62709;SDS011;48770;51.624;5.886;2023-02-07T09:07:11;2.42;;;2.00;;
62709;SDS011;48770;51.624;5.886;2023-02-07T09:09:37;2.40;;;2.15;;
62709;SDS011;48770;51.624;5.886;2023-02-07T09:12:03;2.60;;;2.03;;
62709;SDS011;48770;51.624;5.886;2023-02-07T09:14:28;2.95;;;2.65;;
62709;SDS011;48770;51.624;5.886;2023-02-07T09:16:54;2.42;;;2.20;;
62709;SDS011;48770;51.624;5.886;2023-02-07T09:19:19;2.70;;;2.30;;
62709;SDS011;48770;51.624;5.886;2023-02-07T09:21:45;2.95;;;2.53;;
62709;SDS011;48770;51.624;5.886;2023-02-07T09:24:10;3.08;;;2.70;;
62709;SDS011;48770;51.624;5.886;2023-02-07T09:26:36;2.55;;;2.30;;
62709;SDS011;48770;51.624;5.886;2023-02-07T09:29:03;3.05;;;2.50;;
62709;SDS011;48770;51.624;5.886;2023-02-07T09:31:29;3.28;;;2.42;;
62709;SDS011;48770;51.624;5.886;2023-02-07T09:33:55;2.75;;;2.53;;
62709;SDS011;48770;51.624;5.886;2023-02-07T09:36:22;3.05;;;2.58;;
62709;SDS011;48770;51.624;5.886;2023-02-07T09:38:49;3.45;;;2.78;;
62709;SDS011;48770;51.624;5.886;2023-02-07T09:46:46;3.50;;;3.13;;
62709;SDS011;48770;51.624;5.886;2023-02-07T09:52:34;4.00;;;3.35;;
62709;SDS011;48770;51.624;5.886;2023-02-07T09:55:03;3.13;;;2.83;;
62709;SDS011;48770;51.624;5.886;2023-02-07T09:57:35;3.45;;;3.13;;
62709;SDS011;48770;51.624;5.886;2023-02-07T10:02:57;3.85;;;3.28;;
62709;SDS011;48770;51.624;5.886;2023-02-07T10:05:49;4.57;;;3.28;;
62709;SDS011;48770;51.624;5.886;2023-02-07T10:08:21;3.45;;;2.97;;
62709;SDS011;48770;51.624;5.886;2023-02-07T10:10:49;3.80;;;3.13;;
62709;SDS011;48770;51.624;5.886;2023-02-07T10:19:18;3.42;;;2.92;;
62709;SDS011;48770;51.624;5.886;2023-02-07T10:22:09;4.13;;;3.70;;
62709;SDS011;48770;51.624;5.886;2023-02-07T10:28:05;3.47;;;2.97;;
62709;SDS011;48770;51.624;5.886;2023-02-07T10:31:01;3.50;;;2.88;;
62709;SDS011;48770;51.624;5.886;2023-02-07T10:33:28;3.97;;;3.25;;
62709;SDS011;48770;51.624;5.886;2023-02-07T10:35:56;4.13;;;3.25;;
62709;SDS011;48770;51.624;5.886;2023-02-07T10:38:30;3.75;;;2.90;;
62709;SDS011;48770;51.624;5.886;2023-02-07T10:43:51;3.55;;;2.90;;
62709;SDS011;48770;51.624;5.886;2023-02-07T10:46:21;3.63;;;3.30;;
62709;SDS011;48770;51.624;5.886;2023-02-07T10:48:47;4.25;;;3.45;;
62709;SDS011;48770;51.624;5.886;2023-02-07T10:56:42;3.33;;;2.80;;
62709;SDS011;48770;51.624;5.886;2023-02-07T11:01:57;3.33;;;2.88;;
62709;SDS011;48770;51.624;5.886;2023-02-07T11:04:36;2.75;;;2.45;;
62709;SDS011;48770;51.624;5.886;2023-02-07T11:07:03;3.15;;;2.72;;
62709;SDS011;48770;51.624;5.886;2023-02-07T11:09:32;3.78;;;2.85;;
62709;SDS011;48770;51.624;5.886;2023-02-07T11:12:04;3.63;;;2.47;;
62709;SDS011;48770;51.624;5.886;2023-02-07T11:14:57;3.33;;;2.70;;
62709;SDS011;48770;51.624;5.886;2023-02-07T11:17:25;5.80;;;4.03;;
62709;SDS011;48770;51.624;5.886;2023-02-07T11:19:51;5.20;;;3.83;;
62709;SDS011;48770;51.624;5.886;2023-02-07T11:22:18;4.65;;;3.40;;
62709;SDS011;48770;51.624;5.886;2023-02-07T11:24:45;6.20;;;3.45;;
62709;SDS011;48770;51.624;5.886;2023-02-07T11:27:13;4.75;;;3.17;;
62709;SDS011;48770;51.624;5.886;2023-02-07T11:30:26;5.18;;;3.30;;
62709;SDS011;48770;51.624;5.886;2023-02-07T11:32:34;4.40;;;3.20;;
62709;SDS011;48770;51.624;5.886;2023-02-07T11:35:05;4.75;;;3.47;;
62709;SDS011;48770;51.624;5.886;2023-02-07T11:42:43;4.07;;;2.90;;
62709;SDS011;48770;51.624;5.886;2023-02-07T11:45:12;4.38;;;2.80;;
62709;SDS011;48770;51.624;5.886;2023-02-07T11:47:40;4.38;;;2.97;;
62709;SDS011;48770;51.624;5.886;2023-02-07T11:50:10;3.50;;;2.70;;
62709;SDS011;48770;51.624;5.886;2023-02-07T11:52:55;4.32;;;3.15;;
62709;SDS011;48770;51.624;5.886;2023-02-07T11:55:33;5.03;;;3.00;;
62709;SDS011;48770;51.624;5.886;2023-02-07T11:58:06;4.13;;;2.65;;
62709;SDS011;48770;51.624;5.886;2023-02-07T12:03:02;5.30;;;2.80;;
62709;SDS011;48770;51.624;5.886;2023-02-07T12:05:32;4.68;;;2.70;;
62709;SDS011;48770;51.624;5.886;2023-02-07T12:08:04;3.55;;;2.67;;
62709;SDS011;48770;51.624;5.886;2023-02-07T12:10:37;4.07;;;3.22;;
62709;SDS011;48770;51.624;5.886;2023-02-07T12:13:13;3.53;;;2.80;;
62709;SDS011;48770;51.624;5.886;2023-02-07T12:15:51;2.65;;;2.28;;
62709;SDS011;48770;51.624;5.886;2023-02-07T12:23:47;3.17;;;2.60;;
62709;SDS011;48770;51.624;5.886;2023-02-07T12:32:07;2.95;;;2.45;;
62709;SDS011;48770;51.624;5.886;2023-02-07T12:37:27;3.42;;;2.67;;
62709;SDS011;48770;51.624;5.886;2023-02-07T12:40:04;3.67;;;2.60;;
62709;SDS011;48770;51.624;5.886;2023-02-07T12:43:00;3.20;;;2.42;;
62709;SDS011;48770;51.624;5.886;2023-02-07T12:51:32;3.05;;;2.20;;
62709;SDS011;48770;51.624;5.886;2023-02-07T13:00:19;3.30;;;2.25;;
62709;SDS011;48770;51.624;5.886;2023-02-07T13:11:28;2.75;;;2.22;;
62709;SDS011;48770;51.624;5.886;2023-02-07T13:13:27;2.65;;;1.83;;
62709;SDS011;48770;51.624;5.886;2023-02-07T13:16:01;2.97;;;1.83;;
62709;SDS011;48770;51.624;5.886;2023-02-07T13:18:39;2.47;;;1.85;;
62709;SDS011;48770;51.624;5.886;2023-02-07T13:21:31;3.13;;;2.33;;
62709;SDS011;48770;51.624;5.886;2023-02-07T13:24:12;2.03;;;1.80;;
62709;SDS011;48770;51.624;5.886;2023-02-07T13:26:43;2.33;;;1.90;;
62709;SDS011;48770;51.624;5.886;2023-02-07T13:29:16;1.65;;;1.42;;
62709;SDS011;48770;51.624;5.886;2023-02-07T13:31:51;2.30;;;1.63;;
62709;SDS011;48770;51.624;5.886;2023-02-07T13:34:21;2.03;;;1.60;;
62709;SDS011;48770;51.624;5.886;2023-02-07T13:36:49;2.58;;;1.85;;
62709;SDS011;48770;51.624;5.886;2023-02-07T13:47:24;2.78;;;1.70;;
62709;SDS011;48770;51.624;5.886;2023-02-07T13:49:59;2.05;;;1.77;;
62709;SDS011;48770;51.624;5.886;2023-02-07T13:57:57;1.97;;;1.20;;
62709;SDS011;48770;51.624;5.886;2023-02-07T14:03:20;1.73;;;1.52;;
62709;SDS011;48770;51.624;5.886;2023-02-07T14:05:51;1.95;;;1.52;;
62709;SDS011;48770;51.624;5.886;2023-02-07T14:13:31;1.80;;;1.38;;
62709;SDS011;48770;51.624;5.886;2023-02-07T14:16:00;1.98;;;1.45;;
62709;SDS011;48770;51.624;5.886;2023-02-07T14:18:43;1.50;;;1.40;;
62709;SDS011;48770;51.624;5.886;2023-02-07T14:31:48;1.60;;;1.25;;
62709;SDS011;48770;51.624;5.886;2023-02-07T14:34:31;1.60;;;1.48;;
62709;SDS011;48770;51.624;5.886;2023-02-07T14:37:20;2.15;;;1.40;;
62709;SDS011;48770;51.624;5.886;2023-02-07T14:40:05;2.22;;;1.38;;
62709;SDS011;48770;51.624;5.886;2023-02-07T14:42:32;1.52;;;1.30;;
62709;SDS011;48770;51.624;5.886;2023-02-07T14:44:57;1.80;;;1.42;;
62709;SDS011;48770;51.624;5.886;2023-02-07T14:47:24;1.77;;;1.25;;
62709;SDS011;48770;51.624;5.886;2023-02-07T14:49:53;1.77;;;1.58;;
62709;SDS011;48770;51.624;5.886;2023-02-07T14:52:23;1.60;;;1.20;;
62709;SDS011;48770;51.624;5.886;2023-02-07T14:54:53;1.50;;;1.10;;
62709;SDS011;48770;51.624;5.886;2023-02-07T15:00:01;1.35;;;1.02;;
62709;SDS011;48770;51.624;5.886;2023-02-07T15:07:48;1.45;;;1.13;;
62709;SDS011;48770;51.624;5.886;2023-02-07T15:10:31;1.15;;;1.00;;
62709;SDS011;48770;51.624;5.886;2023-02-07T15:16:02;1.23;;;1.13;;
62709;SDS011;48770;51.624;5.886;2023-02-07T15:18:34;1.65;;;1.40;;
62709;SDS011;48770;51.624;5.886;2023-02-07T15:21:04;2.00;;;1.20;;
62709;SDS011;48770;51.624;5.886;2023-02-07T15:23:31;1.30;;;1.13;;
62709;SDS011;48770;51.624;5.886;2023-02-07T15:25:58;1.50;;;1.17;;
62709;SDS011;48770;51.624;5.886;2023-02-07T15:28:28;1.10;;;0.95;;
62709;SDS011;48770;51.624;5.886;2023-02-07T15:31:00;1.33;;;1.10;;
62709;SDS011;48770;51.624;5.886;2023-02-07T15:33:40;1.02;;;0.93;;
62709;SDS011;48770;51.624;5.886;2023-02-07T15:36:35;1.08;;;0.98;;
62709;SDS011;48770;51.624;5.886;2023-02-07T15:39:05;1.00;;;0.90;;
62709;SDS011;48770;51.624;5.886;2023-02-07T15:44:04;1.48;;;1.00;;
62709;SDS011;48770;51.624;5.886;2023-02-07T15:52:00;1.35;;;1.25;;
62709;SDS011;48770;51.624;5.886;2023-02-07T15:54:42;1.30;;;1.02;;
62709;SDS011;48770;51.624;5.886;2023-02-07T15:57:18;2.05;;;1.02;;
62709;SDS011;48770;51.624;5.886;2023-02-07T15:59:48;0.90;;;0.80;;
62709;SDS011;48770;51.624;5.886;2023-02-07T16:02:19;1.05;;;0.90;;
62709;SDS011;48770;51.624;5.886;2023-02-07T16:04:47;1.00;;;0.88;;
62709;SDS011;48770;51.624;5.886;2023-02-07T16:07:13;1.20;;;1.00;;
62709;SDS011;48770;51.624;5.886;2023-02-07T16:09:40;1.10;;;0.80;;
62709;SDS011;48770;51.624;5.886;2023-02-07T16:14:55;1.02;;;0.90;;
62709;SDS011;48770;51.624;5.886;2023-02-07T16:17:21;1.05;;;0.85;;
62709;SDS011;48770;51.624;5.886;2023-02-07T16:19:48;0.80;;;0.70;;
62709;SDS011;48770;51.624;5.886;2023-02-07T16:22:15;0.80;;;0.70;;
62709;SDS011;48770;51.624;5.886;2023-02-07T16:24:44;1.05;;;0.82;;
62709;SDS011;48770;51.624;5.886;2023-02-07T16:27:21;1.00;;;0.80;;
62709;SDS011;48770;51.624;5.886;2023-02-07T16:29:52;0.95;;;0.80;;
62709;SDS011;48770;51.624;5.886;2023-02-07T16:32:18;1.10;;;0.88;;
62709;SDS011;48770;51.624;5.886;2023-02-07T16:34:45;1.67;;;0.80;;
62709;SDS011;48770;51.624;5.886;2023-02-07T16:37:10;1.30;;;1.00;;
62709;SDS011;48770;51.624;5.886;2023-02-07T16:39:37;1.23;;;0.80;;
62709;SDS011;48770;51.624;5.886;2023-02-07T16:42:04;1.02;;;0.82;;
62709;SDS011;48770;51.624;5.886;2023-02-07T16:44:32;0.80;;;0.80;;
62709;SDS011;48770;51.624;5.886;2023-02-07T16:46:58;0.85;;;0.50;;
62709;SDS011;48770;51.624;5.886;2023-02-07T16:49:24;1.10;;;0.88;;
62709;SDS011;48770;51.624;5.886;2023-02-07T16:51:51;0.80;;;0.80;;
62709;SDS011;48770;51.624;5.886;2023-02-07T16:54:17;0.82;;;0.82;;
62709;SDS011;48770;51.624;5.886;2023-02-07T16:56:43;1.05;;;0.80;;
62709;SDS011;48770;51.624;5.886;2023-02-07T16:59:13;1.10;;;0.63;;
62709;SDS011;48770;51.624;5.886;2023-02-07T17:01:42;1.45;;;0.90;;
62709;SDS011;48770;51.624;5.886;2023-02-07T17:04:08;0.77;;;0.60;;
62709;SDS011;48770;51.624;5.886;2023-02-07T17:06:35;1.20;;;0.90;;
62709;SDS011;48770;51.624;5.886;2023-02-07T17:09:01;0.98;;;0.77;;
62709;SDS011;48770;51.624;5.886;2023-02-07T17:11:26;1.10;;;0.90;;
62709;SDS011;48770;51.624;5.886;2023-02-07T17:13:52;0.88;;;0.57;;
62709;SDS011;48770;51.624;5.886;2023-02-07T17:16:20;0.93;;;0.75;;
62709;SDS011;48770;51.624;5.886;2023-02-07T17:18:46;2.03;;;0.90;;
62709;SDS011;48770;51.624;5.886;2023-02-07T17:21:11;0.80;;;0.70;;
62709;SDS011;48770;51.624;5.886;2023-02-07T17:23:38;0.98;;;0.82;;
62709;SDS011;48770;51.624;5.886;2023-02-07T17:26:04;1.23;;;0.70;;
62709;SDS011;48770;51.624;5.886;2023-02-07T17:28:41;0.88;;;0.68;;
62709;SDS011;48770;51.624;5.886;2023-02-07T17:31:08;1.17;;;0.88;;
62709;SDS011;48770;51.624;5.886;2023-02-07T17:33:35;1.30;;;0.70;;
62709;SDS011;48770;51.624;5.886;2023-02-07T17:36:00;1.35;;;1.00;;
62709;SDS011;48770;51.624;5.886;2023-02-07T17:38:25;0.90;;;0.80;;
62709;SDS011;48770;51.624;5.886;2023-02-07T17:40:51;1.08;;;0.65;;